createdAt,value
2023-05-05T00:18:00.859Z,100.00
2023-05-05T00:38:02.759Z,100.00
2023-05-05T00:58:04.321Z,100.00
2023-05-05T01:18:06.224Z,100.00
2023-05-05T01:38:07.901Z,100.00
2023-05-05T01:58:11.482Z,100.00
2023-05-05T02:18:13.040Z,100.00
2023-05-05T02:38:14.818Z,100.00
2023-05-05T02:58:16.764Z,100.00
2023-05-05T03:18:20.054Z,100.00
2023-05-05T03:38:27.870Z,98.03
2023-05-05T03:58:29.792Z,100.00
2023-05-05T04:18:31.480Z,86.03
2023-05-05T04:38:34.264Z,62.44
2023-05-05T04:58:37.104Z,61.08
2023-05-05T05:18:39.079Z,58.91
2023-05-05T05:38:41.356Z,55.55
2023-05-05T05:58:44.445Z,58.09
2023-05-05T06:18:46.209Z,52.69
2023-05-05T06:38:48.099Z,46.47
2023-05-05T06:58:51.739Z,49.00
2023-05-05T07:18:54.112Z,48.92
2023-05-05T07:38:55.658Z,46.67
2023-05-05T07:58:57.573Z,46.90
2023-05-05T08:18:59.085Z,48.47
2023-05-05T08:39:01.923Z,45.48
2023-05-05T08:59:03.522Z,45.50
2023-05-05T09:19:05.436Z,44.58
2023-05-05T09:39:08.084Z,45.75
2023-05-05T09:59:09.884Z,46.07
2023-05-05T10:19:13.145Z,45.13
2023-05-05T10:39:15.038Z,45.16
2023-05-05T10:59:16.501Z,45.19
2023-05-05T11:19:18.381Z,43.75
2023-05-05T11:39:22.288Z,45.36
2023-05-05T11:59:25.244Z,47.45
2023-05-05T12:40:14.806Z,46.22
2023-05-05T13:00:16.296Z,45.21
2023-05-05T13:20:17.952Z,46.69
2023-05-05T13:40:19.426Z,44.11
2023-05-05T14:00:21.153Z,45.13
2023-05-05T14:20:22.697Z,44.90
2023-05-05T14:40:24.510Z,42.55
2023-05-05T15:00:25.963Z,43.19
2023-05-05T15:20:27.700Z,43.02
2023-05-05T15:40:29.226Z,42.64
2023-05-05T16:00:30.939Z,43.33
2023-05-05T16:20:32.410Z,44.83
2023-05-05T16:40:34.081Z,46.52
2023-05-05T17:00:35.514Z,49.01
2023-05-05T17:20:37.214Z,52.22
2023-05-05T17:40:38.712Z,55.40
2023-05-05T18:00:40.405Z,60.22
2023-05-05T18:20:41.953Z,65.40
2023-05-05T18:40:43.629Z,70.29
2023-05-05T19:01:03.559Z,73.46
2023-05-05T19:21:23.802Z,76.98
2023-05-05T19:41:44.105Z,76.82
2023-05-05T20:02:04.349Z,77.51
2023-05-05T20:22:24.064Z,79.55
2023-05-05T20:42:44.438Z,78.97
2023-05-05T21:02:45.955Z,81.69
2023-05-05T21:22:47.693Z,83.78
2023-05-05T21:42:49.349Z,86.42
2023-05-05T22:02:51.227Z,89.60
2023-05-05T22:22:52.822Z,95.36
2023-05-05T22:42:54.729Z,97.60
2023-05-05T23:02:56.214Z,98.85
2023-05-05T23:22:57.868Z,100.00
2023-05-05T23:42:59.347Z,100.00
